sensor_id;sensor_type;location;lat;lon;timestamp;temperature;humidity
81867;DHT22;71318;-36.550;-64.300;2024-02-26T11:18:31;20.70;99.90
81867;DHT22;71318;-36.550;-64.300;2024-02-26T11:21:16;20.70;99.90
81867;DHT22;71318;-36.550;-64.300;2024-02-26T11:28:55;20.90;99.90
81867;DHT22;71318;-36.550;-64.300;2024-02-26T11:36:32;21.00;99.90
81867;DHT22;71318;-36.550;-64.300;2024-02-26T11:41:34;21.00;99.90
81867;DHT22;71318;-36.550;-64.300;2024-02-26T11:51:54;21.00;99.90
81867;DHT22;71318;-36.550;-64.300;2024-02-26T12:05:26;21.20;99.90
81867;DHT22;71318;-36.550;-64.300;2024-02-26T12:07:55;21.20;99.90
81867;DHT22;71318;-36.550;-64.300;2024-02-26T12:15:23;21.30;99.90
81867;DHT22;71318;-36.550;-64.300;2024-02-26T12:17:52;21.30;99.90
81867;DHT22;71318;-36.550;-64.300;2024-02-26T12:20:18;21.40;99.90
81867;DHT22;71318;-36.550;-64.300;2024-02-26T12:22:45;21.50;99.90
81867;DHT22;71318;-36.550;-64.300;2024-02-26T12:25:13;21.50;99.90
81867;DHT22;71318;-36.550;-64.300;2024-02-26T12:27:40;21.50;99.90
81867;DHT22;71318;-36.550;-64.300;2024-02-26T12:30:07;21.60;99.90
81867;DHT22;71318;-36.550;-64.300;2024-02-26T12:32:34;21.70;99.90
81867;DHT22;71318;-36.550;-64.300;2024-02-26T12:35:04;21.60;99.90
81867;DHT22;71318;-36.550;-64.300;2024-02-26T12:37:31;21.70;99.90
81867;DHT22;71318;-36.550;-64.300;2024-02-26T12:39:58;21.90;99.90
81867;DHT22;71318;-36.550;-64.300;2024-02-26T12:42:24;21.90;99.90
81867;DHT22;71318;-36.550;-64.300;2024-02-26T12:44:51;22.10;99.90
81867;DHT22;71318;-36.550;-64.300;2024-02-26T12:47:24;22.20;99.90
81867;DHT22;71318;-36.550;-64.300;2024-02-26T12:49:50;22.30;99.90
81867;DHT22;71318;-36.550;-64.300;2024-02-26T12:52:17;22.30;99.90
81867;DHT22;71318;-36.550;-64.300;2024-02-26T12:54:44;22.40;99.90
81867;DHT22;71318;-36.550;-64.300;2024-02-26T12:57:10;22.50;99.90
81867;DHT22;71318;-36.550;-64.300;2024-02-26T12:59:37;22.40;99.90
81867;DHT22;71318;-36.550;-64.300;2024-02-26T13:02:04;22.40;99.90
81867;DHT22;71318;-36.550;-64.300;2024-02-26T13:04:30;22.50;99.90
81867;DHT22;71318;-36.550;-64.300;2024-02-26T13:06:57;22.60;99.90
81867;DHT22;71318;-36.550;-64.300;2024-02-26T13:09:30;22.60;99.90
81867;DHT22;71318;-36.550;-64.300;2024-02-26T13:11:58;22.60;99.90
81867;DHT22;71318;-36.550;-64.300;2024-02-26T13:14:26;22.50;99.90
81867;DHT22;71318;-36.550;-64.300;2024-02-26T13:16:56;22.50;99.90
81867;DHT22;71318;-36.550;-64.300;2024-02-26T13:19:22;22.50;99.90
81867;DHT22;71318;-36.550;-64.300;2024-02-26T13:21:49;22.50;99.90
81867;DHT22;71318;-36.550;-64.300;2024-02-26T13:24:15;22.50;99.90
81867;DHT22;71318;-36.550;-64.300;2024-02-26T13:26:43;22.50;99.90
81867;DHT22;71318;-36.550;-64.300;2024-02-26T13:29:16;22.50;99.90
81867;DHT22;71318;-36.550;-64.300;2024-02-26T13:31:42;22.40;99.90
81867;DHT22;71318;-36.550;-64.300;2024-02-26T13:34:09;22.40;99.90
81867;DHT22;71318;-36.550;-64.300;2024-02-26T13:36:35;22.40;99.90
81867;DHT22;71318;-36.550;-64.300;2024-02-26T13:39:01;22.50;99.90
81867;DHT22;71318;-36.550;-64.300;2024-02-26T13:41:30;22.60;99.90
81867;DHT22;71318;-36.550;-64.300;2024-02-26T13:43:58;22.70;99.90
81867;DHT22;71318;-36.550;-64.300;2024-02-26T13:46:24;22.70;99.90
81867;DHT22;71318;-36.550;-64.300;2024-02-26T13:48:50;22.70;99.90
81867;DHT22;71318;-36.550;-64.300;2024-02-26T13:51:17;22.80;99.90
81867;DHT22;71318;-36.550;-64.300;2024-02-26T13:53:43;22.60;99.90
81867;DHT22;71318;-36.550;-64.300;2024-02-26T13:56:10;22.60;99.90
81867;DHT22;71318;-36.550;-64.300;2024-02-26T13:58:36;22.60;99.90
81867;DHT22;71318;-36.550;-64.300;2024-02-26T14:01:03;22.60;99.90
81867;DHT22;71318;-36.550;-64.300;2024-02-26T14:03:29;22.70;99.90
81867;DHT22;71318;-36.550;-64.300;2024-02-26T14:05:55;22.80;99.90
81867;DHT22;71318;-36.550;-64.300;2024-02-26T14:08:22;22.90;99.90
81867;DHT22;71318;-36.550;-64.300;2024-02-26T14:10:49;22.90;99.90
81867;DHT22;71318;-36.550;-64.300;2024-02-26T14:13:15;22.90;99.90
81867;DHT22;71318;-36.550;-64.300;2024-02-26T14:15:42;23.10;99.90
81867;DHT22;71318;-36.550;-64.300;2024-02-26T14:18:08;23.00;99.90
81867;DHT22;71318;-36.550;-64.300;2024-02-26T14:20:34;22.90;99.90
81867;DHT22;71318;-36.550;-64.300;2024-02-26T14:23:01;22.90;99.90
81867;DHT22;71318;-36.550;-64.300;2024-02-26T14:25:27;22.90;99.90
81867;DHT22;71318;-36.550;-64.300;2024-02-26T14:27:54;22.80;99.90
81867;DHT22;71318;-36.550;-64.300;2024-02-26T14:30:20;22.70;99.90
81867;DHT22;71318;-36.550;-64.300;2024-02-26T14:32:47;22.80;99.90
81867;DHT22;71318;-36.550;-64.300;2024-02-26T14:35:13;22.80;99.90
81867;DHT22;71318;-36.550;-64.300;2024-02-26T14:37:40;22.90;99.90
81867;DHT22;71318;-36.550;-64.300;2024-02-26T14:40:06;22.90;99.90
81867;DHT22;71318;-36.550;-64.300;2024-02-26T14:42:34;22.90;99.90
81867;DHT22;71318;-36.550;-64.300;2024-02-26T14:45:00;22.90;99.90
81867;DHT22;71318;-36.550;-64.300;2024-02-26T14:47:26;23.00;99.90
81867;DHT22;71318;-36.550;-64.300;2024-02-26T14:49:53;23.00;99.90
81867;DHT22;71318;-36.550;-64.300;2024-02-26T14:52:19;22.70;99.90
81867;DHT22;71318;-36.550;-64.300;2024-02-26T14:54:46;22.70;99.90
81867;DHT22;71318;-36.550;-64.300;2024-02-26T14:57:12;22.60;99.90
81867;DHT22;71318;-36.550;-64.300;2024-02-26T14:59:39;22.60;99.90
81867;DHT22;71318;-36.550;-64.300;2024-02-26T15:02:05;22.50;99.90
81867;DHT22;71318;-36.550;-64.300;2024-02-26T15:04:33;22.50;99.90
81867;DHT22;71318;-36.550;-64.300;2024-02-26T15:07:00;22.50;99.90
81867;DHT22;71318;-36.550;-64.300;2024-02-26T15:09:27;22.50;99.90
81867;DHT22;71318;-36.550;-64.300;2024-02-26T15:11:53;22.60;99.90
81867;DHT22;71318;-36.550;-64.300;2024-02-26T15:14:19;22.60;99.90
81867;DHT22;71318;-36.550;-64.300;2024-02-26T15:16:46;22.60;99.90
81867;DHT22;71318;-36.550;-64.300;2024-02-26T15:19:13;22.70;99.90
81867;DHT22;71318;-36.550;-64.300;2024-02-26T15:21:43;22.80;99.90
81867;DHT22;71318;-36.550;-64.300;2024-02-26T15:24:10;22.80;99.90
81867;DHT22;71318;-36.550;-64.300;2024-02-26T15:26:42;22.90;99.90
81867;DHT22;71318;-36.550;-64.300;2024-02-26T15:29:08;22.90;99.90
81867;DHT22;71318;-36.550;-64.300;2024-02-26T15:31:35;23.00;99.90
81867;DHT22;71318;-36.550;-64.300;2024-02-26T15:34:02;23.10;99.90
81867;DHT22;71318;-36.550;-64.300;2024-02-26T15:36:28;23.10;99.90
81867;DHT22;71318;-36.550;-64.300;2024-02-26T15:38:55;23.10;99.90
81867;DHT22;71318;-36.550;-64.300;2024-02-26T15:41:23;23.20;99.90
81867;DHT22;71318;-36.550;-64.300;2024-02-26T15:43:49;23.30;99.90
81867;DHT22;71318;-36.550;-64.300;2024-02-26T15:46:16;23.30;99.90
81867;DHT22;71318;-36.550;-64.300;2024-02-26T15:48:43;23.30;99.90
81867;DHT22;71318;-36.550;-64.300;2024-02-26T15:51:20;23.30;99.90
81867;DHT22;71318;-36.550;-64.300;2024-02-26T15:53:46;23.20;99.90
81867;DHT22;71318;-36.550;-64.300;2024-02-26T15:56:16;23.20;99.90
81867;DHT22;71318;-36.550;-64.300;2024-02-26T15:58:42;23.30;99.90
81867;DHT22;71318;-36.550;-64.300;2024-02-26T16:01:09;23.30;99.90
81867;DHT22;71318;-36.550;-64.300;2024-02-26T16:03:38;23.50;99.90
81867;DHT22;71318;-36.550;-64.300;2024-02-26T16:06:05;23.50;99.90
81867;DHT22;71318;-36.550;-64.300;2024-02-26T16:08:32;23.70;99.90
81867;DHT22;71318;-36.550;-64.300;2024-02-26T16:10:59;23.80;99.90
81867;DHT22;71318;-36.550;-64.300;2024-02-26T16:13:26;23.80;99.90
81867;DHT22;71318;-36.550;-64.300;2024-02-26T16:16:00;23.80;99.90
81867;DHT22;71318;-36.550;-64.300;2024-02-26T16:18:28;23.70;99.90
81867;DHT22;71318;-36.550;-64.300;2024-02-26T16:20:54;23.80;99.90
81867;DHT22;71318;-36.550;-64.300;2024-02-26T16:23:21;23.80;99.90
81867;DHT22;71318;-36.550;-64.300;2024-02-26T16:25:48;23.70;99.90
81867;DHT22;71318;-36.550;-64.300;2024-02-26T16:28:15;23.90;99.90
81867;DHT22;71318;-36.550;-64.300;2024-02-26T16:30:41;24.00;99.90
81867;DHT22;71318;-36.550;-64.300;2024-02-26T16:33:07;24.10;99.90
81867;DHT22;71318;-36.550;-64.300;2024-02-26T16:35:36;24.20;99.90
81867;DHT22;71318;-36.550;-64.300;2024-02-26T16:38:03;24.30;99.90
81867;DHT22;71318;-36.550;-64.300;2024-02-26T16:40:29;24.20;99.90
81867;DHT22;71318;-36.550;-64.300;2024-02-26T16:42:56;24.10;99.90
81867;DHT22;71318;-36.550;-64.300;2024-02-26T16:45:23;24.10;99.90
81867;DHT22;71318;-36.550;-64.300;2024-02-26T16:47:51;24.30;99.90
81867;DHT22;71318;-36.550;-64.300;2024-02-26T16:50:18;24.40;99.90
81867;DHT22;71318;-36.550;-64.300;2024-02-26T16:52:45;24.60;99.90
81867;DHT22;71318;-36.550;-64.300;2024-02-26T16:55:12;24.40;99.90
81867;DHT22;71318;-36.550;-64.300;2024-02-26T16:57:41;24.20;99.90
81867;DHT22;71318;-36.550;-64.300;2024-02-26T17:00:08;24.20;99.90
81867;DHT22;71318;-36.550;-64.300;2024-02-26T17:02:36;24.30;99.90
81867;DHT22;71318;-36.550;-64.300;2024-02-26T17:05:02;24.20;99.90
81867;DHT22;71318;-36.550;-64.300;2024-02-26T17:07:29;24.20;99.90
81867;DHT22;71318;-36.550;-64.300;2024-02-26T17:09:55;24.20;99.90
81867;DHT22;71318;-36.550;-64.300;2024-02-26T17:12:22;24.30;99.90
81867;DHT22;71318;-36.550;-64.300;2024-02-26T17:14:48;24.50;99.90
81867;DHT22;71318;-36.550;-64.300;2024-02-26T17:17:16;24.40;99.50
81867;DHT22;71318;-36.550;-64.300;2024-02-26T17:19:42;24.60;99.90
81867;DHT22;71318;-36.550;-64.300;2024-02-26T17:22:09;24.90;99.90
81867;DHT22;71318;-36.550;-64.300;2024-02-26T17:24:36;25.20;98.20
81867;DHT22;71318;-36.550;-64.300;2024-02-26T17:27:03;24.90;96.00
81867;DHT22;71318;-36.550;-64.300;2024-02-26T17:29:30;25.20;96.40
81867;DHT22;71318;-36.550;-64.300;2024-02-26T17:31:56;25.30;96.60
81867;DHT22;71318;-36.550;-64.300;2024-02-26T17:34:22;25.30;97.70
81867;DHT22;71318;-36.550;-64.300;2024-02-26T17:36:49;25.10;96.30
81867;DHT22;71318;-36.550;-64.300;2024-02-26T17:39:16;25.00;97.70
81867;DHT22;71318;-36.550;-64.300;2024-02-26T17:41:42;24.80;97.00
81867;DHT22;71318;-36.550;-64.300;2024-02-26T17:44:10;25.00;98.70
81867;DHT22;71318;-36.550;-64.300;2024-02-26T17:46:37;25.20;95.60
81867;DHT22;71318;-36.550;-64.300;2024-02-26T17:49:03;25.30;94.10
81867;DHT22;71318;-36.550;-64.300;2024-02-26T17:51:29;25.40;93.30
81867;DHT22;71318;-36.550;-64.300;2024-02-26T17:53:56;25.60;92.20
81867;DHT22;71318;-36.550;-64.300;2024-02-26T17:56:22;25.70;92.70
81867;DHT22;71318;-36.550;-64.300;2024-02-26T17:58:49;25.70;92.00
81867;DHT22;71318;-36.550;-64.300;2024-02-26T18:01:15;25.50;94.10
81867;DHT22;71318;-36.550;-64.300;2024-02-26T18:03:41;25.50;91.90
81867;DHT22;71318;-36.550;-64.300;2024-02-26T18:06:08;25.40;94.30
81867;DHT22;71318;-36.550;-64.300;2024-02-26T18:08:34;25.20;94.80
81867;DHT22;71318;-36.550;-64.300;2024-02-26T18:11:00;25.20;95.70
81867;DHT22;71318;-36.550;-64.300;2024-02-26T18:13:27;25.00;96.10
81867;DHT22;71318;-36.550;-64.300;2024-02-26T18:15:54;24.80;97.30
81867;DHT22;71318;-36.550;-64.300;2024-02-26T18:18:23;24.80;98.50
81867;DHT22;71318;-36.550;-64.300;2024-02-26T18:20:51;24.70;98.60
81867;DHT22;71318;-36.550;-64.300;2024-02-26T18:23:17;24.70;99.30
81867;DHT22;71318;-36.550;-64.300;2024-02-26T18:25:43;24.70;99.90
81867;DHT22;71318;-36.550;-64.300;2024-02-26T18:28:10;24.60;99.90
81867;DHT22;71318;-36.550;-64.300;2024-02-26T18:30:36;24.50;99.90
81867;DHT22;71318;-36.550;-64.300;2024-02-26T18:33:05;24.60;99.90
81867;DHT22;71318;-36.550;-64.300;2024-02-26T18:35:33;24.50;99.90
81867;DHT22;71318;-36.550;-64.300;2024-02-26T18:37:59;24.50;99.90
81867;DHT22;71318;-36.550;-64.300;2024-02-26T18:40:26;24.40;99.90
81867;DHT22;71318;-36.550;-64.300;2024-02-26T18:42:53;24.20;99.90
81867;DHT22;71318;-36.550;-64.300;2024-02-26T18:45:19;24.30;99.90
81867;DHT22;71318;-36.550;-64.300;2024-02-26T18:47:46;24.20;99.90
81867;DHT22;71318;-36.550;-64.300;2024-02-26T18:50:14;24.30;99.90
81867;DHT22;71318;-36.550;-64.300;2024-02-26T18:52:41;24.30;99.90
81867;DHT22;71318;-36.550;-64.300;2024-02-26T18:55:07;24.50;99.90
81867;DHT22;71318;-36.550;-64.300;2024-02-26T18:57:34;24.50;99.90
81867;DHT22;71318;-36.550;-64.300;2024-02-26T19:00:02;24.50;99.90
81867;DHT22;71318;-36.550;-64.300;2024-02-26T19:02:30;24.60;99.90
81867;DHT22;71318;-36.550;-64.300;2024-02-26T19:04:56;24.40;99.90
81867;DHT22;71318;-36.550;-64.300;2024-02-26T19:07:23;24.40;99.90
81867;DHT22;71318;-36.550;-64.300;2024-02-26T19:09:49;24.50;99.90
81867;DHT22;71318;-36.550;-64.300;2024-02-26T19:12:18;24.70;99.90
81867;DHT22;71318;-36.550;-64.300;2024-02-26T19:14:46;25.00;99.90
81867;DHT22;71318;-36.550;-64.300;2024-02-26T19:17:12;25.30;99.80
81867;DHT22;71318;-36.550;-64.300;2024-02-26T19:19:38;25.40;97.20
81867;DHT22;71318;-36.550;-64.300;2024-02-26T19:22:05;25.60;97.20
81867;DHT22;71318;-36.550;-64.300;2024-02-26T19:24:34;25.80;97.50
81867;DHT22;71318;-36.550;-64.300;2024-02-26T19:27:01;25.70;95.60
81867;DHT22;71318;-36.550;-64.300;2024-02-26T19:29:27;25.70;95.20
81867;DHT22;71318;-36.550;-64.300;2024-02-26T19:31:55;25.80;96.30
81867;DHT22;71318;-36.550;-64.300;2024-02-26T19:34:22;25.60;94.40
81867;DHT22;71318;-36.550;-64.300;2024-02-26T19:36:48;25.50;95.50
81867;DHT22;71318;-36.550;-64.300;2024-02-26T19:39:14;25.30;97.00
81867;DHT22;71318;-36.550;-64.300;2024-02-26T19:41:41;25.30;97.70
81867;DHT22;71318;-36.550;-64.300;2024-02-26T19:44:10;25.60;98.20
81867;DHT22;71318;-36.550;-64.300;2024-02-26T19:46:36;25.80;96.60
81867;DHT22;71318;-36.550;-64.300;2024-02-26T19:49:03;25.80;93.40
81867;DHT22;71318;-36.550;-64.300;2024-02-26T19:51:30;25.90;96.10
81867;DHT22;71318;-36.550;-64.300;2024-02-26T19:53:56;26.10;92.40
81867;DHT22;71318;-36.550;-64.300;2024-02-26T19:56:23;26.20;90.90
81867;DHT22;71318;-36.550;-64.300;2024-02-26T19:58:52;26.10;92.20
81867;DHT22;71318;-36.550;-64.300;2024-02-26T20:01:18;26.00;91.80
81867;DHT22;71318;-36.550;-64.300;2024-02-26T20:03:45;26.20;89.80
81867;DHT22;71318;-36.550;-64.300;2024-02-26T20:06:11;26.50;86.80
81867;DHT22;71318;-36.550;-64.300;2024-02-26T20:08:38;26.40;86.90
81867;DHT22;71318;-36.550;-64.300;2024-02-26T20:11:04;26.60;87.30
81867;DHT22;71318;-36.550;-64.300;2024-02-26T20:13:31;27.00;84.90
81867;DHT22;71318;-36.550;-64.300;2024-02-26T20:15:57;27.00;86.90
81867;DHT22;71318;-36.550;-64.300;2024-02-26T20:18:24;27.00;88.80
81867;DHT22;71318;-36.550;-64.300;2024-02-26T20:20:50;26.50;88.50
81867;DHT22;71318;-36.550;-64.300;2024-02-26T20:23:17;26.50;88.90
81867;DHT22;71318;-36.550;-64.300;2024-02-26T20:25:43;26.60;88.60
81867;DHT22;71318;-36.550;-64.300;2024-02-26T20:28:09;26.80;89.10
81867;DHT22;71318;-36.550;-64.300;2024-02-26T20:30:36;27.00;86.80
81867;DHT22;71318;-36.550;-64.300;2024-02-26T20:33:02;27.00;85.40
81867;DHT22;71318;-36.550;-64.300;2024-02-26T20:35:30;26.80;86.20
81867;DHT22;71318;-36.550;-64.300;2024-02-26T20:37:57;26.90;86.60
81867;DHT22;71318;-36.550;-64.300;2024-02-26T20:40:24;26.90;87.60
81867;DHT22;71318;-36.550;-64.300;2024-02-26T20:42:50;26.80;86.40
81867;DHT22;71318;-36.550;-64.300;2024-02-26T20:45:16;27.10;86.10
81867;DHT22;71318;-36.550;-64.300;2024-02-26T20:47:43;27.40;85.00
81867;DHT22;71318;-36.550;-64.300;2024-02-26T20:50:09;27.50;84.70
81867;DHT22;71318;-36.550;-64.300;2024-02-26T20:52:36;27.20;86.00
81867;DHT22;71318;-36.550;-64.300;2024-02-26T20:55:02;26.80;85.70
81867;DHT22;71318;-36.550;-64.300;2024-02-26T20:57:29;27.00;86.60
81867;DHT22;71318;-36.550;-64.300;2024-02-26T20:59:55;26.70;85.40
81867;DHT22;71318;-36.550;-64.300;2024-02-26T21:02:23;26.50;87.30
81867;DHT22;71318;-36.550;-64.300;2024-02-26T21:04:49;26.40;87.90
81867;DHT22;71318;-36.550;-64.300;2024-02-26T21:07:16;26.30;89.50
81867;DHT22;71318;-36.550;-64.300;2024-02-26T21:09:42;26.10;90.30
81867;DHT22;71318;-36.550;-64.300;2024-02-26T21:12:09;26.20;89.90
81867;DHT22;71318;-36.550;-64.300;2024-02-26T21:14:36;26.30;88.90
81867;DHT22;71318;-36.550;-64.300;2024-02-26T21:17:03;26.50;86.40
81867;DHT22;71318;-36.550;-64.300;2024-02-26T21:19:29;26.60;86.00
81867;DHT22;71318;-36.550;-64.300;2024-02-26T21:21:55;26.40;87.10
81867;DHT22;71318;-36.550;-64.300;2024-02-26T21:24:22;26.30;87.60
81867;DHT22;71318;-36.550;-64.300;2024-02-26T21:26:48;26.40;89.60
81867;DHT22;71318;-36.550;-64.300;2024-02-26T21:29:16;26.70;86.50
81867;DHT22;71318;-36.550;-64.300;2024-02-26T21:31:42;26.50;87.90
81867;DHT22;71318;-36.550;-64.300;2024-02-26T21:34:09;26.40;88.80
81867;DHT22;71318;-36.550;-64.300;2024-02-26T21:36:35;26.00;91.00
81867;DHT22;71318;-36.550;-64.300;2024-02-26T21:39:02;25.70;92.70
81867;DHT22;71318;-36.550;-64.300;2024-02-26T21:41:28;25.70;92.50
81867;DHT22;71318;-36.550;-64.300;2024-02-26T21:43:55;25.60;93.10
81867;DHT22;71318;-36.550;-64.300;2024-02-26T21:46:21;25.50;93.80
81867;DHT22;71318;-36.550;-64.300;2024-02-26T21:48:49;25.40;93.30
81867;DHT22;71318;-36.550;-64.300;2024-02-26T21:51:16;25.40;93.80
81867;DHT22;71318;-36.550;-64.300;2024-02-26T21:53:42;25.50;94.10
81867;DHT22;71318;-36.550;-64.300;2024-02-26T21:56:09;25.60;93.50
81867;DHT22;71318;-36.550;-64.300;2024-02-26T21:58:35;25.60;93.80
81867;DHT22;71318;-36.550;-64.300;2024-02-26T22:01:02;25.70;93.50
81867;DHT22;71318;-36.550;-64.300;2024-02-26T22:03:29;25.70;93.50
81867;DHT22;71318;-36.550;-64.300;2024-02-26T22:05:55;25.70;94.40
81867;DHT22;71318;-36.550;-64.300;2024-02-26T22:08:21;25.70;93.80
81867;DHT22;71318;-36.550;-64.300;2024-02-26T22:10:48;25.60;94.40
81867;DHT22;71318;-36.550;-64.300;2024-02-26T22:13:15;25.50;94.90
81867;DHT22;71318;-36.550;-64.300;2024-02-26T22:15:42;25.50;95.10
81867;DHT22;71318;-36.550;-64.300;2024-02-26T22:18:10;25.50;95.10
81867;DHT22;71318;-36.550;-64.300;2024-02-26T22:20:36;25.50;97.20
81867;DHT22;71318;-36.550;-64.300;2024-02-26T22:23:03;25.20;96.80
81867;DHT22;71318;-36.550;-64.300;2024-02-26T22:25:29;25.00;97.30
81867;DHT22;71318;-36.550;-64.300;2024-02-26T22:27:55;25.00;99.40
81867;DHT22;71318;-36.550;-64.300;2024-02-26T22:30:22;24.90;98.80
81867;DHT22;71318;-36.550;-64.300;2024-02-26T22:32:48;24.90;99.10
81867;DHT22;71318;-36.550;-64.300;2024-02-26T22:35:15;24.80;99.10
81867;DHT22;71318;-36.550;-64.300;2024-02-26T22:37:41;24.70;99.90
81867;DHT22;71318;-36.550;-64.300;2024-02-26T22:40:07;24.60;99.90
81867;DHT22;71318;-36.550;-64.300;2024-02-26T22:42:34;24.60;99.90
81867;DHT22;71318;-36.550;-64.300;2024-02-26T22:45:01;24.60;99.90
81867;DHT22;71318;-36.550;-64.300;2024-02-26T22:47:28;24.50;99.90
81867;DHT22;71318;-36.550;-64.300;2024-02-26T22:49:54;24.40;99.90
81867;DHT22;71318;-36.550;-64.300;2024-02-26T22:52:20;24.30;99.90
81867;DHT22;71318;-36.550;-64.300;2024-02-26T22:54:47;24.30;99.90
81867;DHT22;71318;-36.550;-64.300;2024-02-26T22:57:13;24.30;99.90
81867;DHT22;71318;-36.550;-64.300;2024-02-26T22:59:39;24.30;99.90
81867;DHT22;71318;-36.550;-64.300;2024-02-26T23:02:06;24.20;99.90
81867;DHT22;71318;-36.550;-64.300;2024-02-26T23:04:33;24.00;99.90
81867;DHT22;71318;-36.550;-64.300;2024-02-26T23:06:59;23.70;99.90
81867;DHT22;71318;-36.550;-64.300;2024-02-26T23:09:27;23.50;99.90
81867;DHT22;71318;-36.550;-64.300;2024-02-26T23:11:54;23.50;99.90
81867;DHT22;71318;-36.550;-64.300;2024-02-26T23:14:20;23.40;99.90
81867;DHT22;71318;-36.550;-64.300;2024-02-26T23:16:47;23.30;99.90
81867;DHT22;71318;-36.550;-64.300;2024-02-26T23:19:15;23.20;99.90
81867;DHT22;71318;-36.550;-64.300;2024-02-26T23:21:41;23.30;99.90
81867;DHT22;71318;-36.550;-64.300;2024-02-26T23:24:08;23.20;99.90
81867;DHT22;71318;-36.550;-64.300;2024-02-26T23:26:34;23.10;99.90
81867;DHT22;71318;-36.550;-64.300;2024-02-26T23:29:00;23.10;99.90
81867;DHT22;71318;-36.550;-64.300;2024-02-26T23:31:27;23.00;99.90
81867;DHT22;71318;-36.550;-64.300;2024-02-26T23:33:53;22.90;99.90
81867;DHT22;71318;-36.550;-64.300;2024-02-26T23:36:23;22.80;99.90
81867;DHT22;71318;-36.550;-64.300;2024-02-26T23:38:49;22.70;99.90
81867;DHT22;71318;-36.550;-64.300;2024-02-26T23:41:19;22.70;99.90
81867;DHT22;71318;-36.550;-64.300;2024-02-26T23:43:47;22.60;99.90
81867;DHT22;71318;-36.550;-64.300;2024-02-26T23:46:14;22.50;99.90
81867;DHT22;71318;-36.550;-64.300;2024-02-26T23:48:40;22.30;99.90
81867;DHT22;71318;-36.550;-64.300;2024-02-26T23:51:07;22.20;99.90
81867;DHT22;71318;-36.550;-64.300;2024-02-26T23:53:33;22.20;99.90
81867;DHT22;71318;-36.550;-64.300;2024-02-26T23:55:59;22.10;99.90
81867;DHT22;71318;-36.550;-64.300;2024-02-26T23:58:26;22.00;99.90
